sensor_id;sensor_type;location;lat;lon;timestamp;P1;durP1;ratioP1;P2;durP2;ratioP2
25917;SDS011;13899;51.174;4.456;2022-08-18T00:01:14;102.75;;;64.15;;
25917;SDS011;13899;51.174;4.456;2022-08-18T00:03:41;110.18;;;66.43;;
25917;SDS011;13899;51.174;4.456;2022-08-18T00:06:08;116.50;;;67.95;;
25917;SDS011;13899;51.174;4.456;2022-08-18T00:08:33;107.20;;;62.53;;
25917;SDS011;13899;51.174;4.456;2022-08-18T00:10:59;131.13;;;72.83;;
25917;SDS011;13899;51.174;4.456;2022-08-18T00:13:25;137.47;;;73.37;;
25917;SDS011;13899;51.174;4.456;2022-08-18T00:15:51;134.30;;;72.57;;
25917;SDS011;13899;51.174;4.456;2022-08-18T00:18:17;140.87;;;75.80;;
25917;SDS011;13899;51.174;4.456;2022-08-18T00:20:43;126.60;;;71.63;;
25917;SDS011;13899;51.174;4.456;2022-08-18T00:23:09;116.90;;;63.97;;
25917;SDS011;13899;51.174;4.456;2022-08-18T00:25:34;121.50;;;68.67;;
25917;SDS011;13899;51.174;4.456;2022-08-18T00:28:00;136.83;;;74.37;;
25917;SDS011;13899;51.174;4.456;2022-08-18T00:30:26;124.63;;;69.60;;
25917;SDS011;13899;51.174;4.456;2022-08-18T00:32:53;142.40;;;76.70;;
25917;SDS011;13899;51.174;4.456;2022-08-18T00:37:51;130.07;;;68.03;;
25917;SDS011;13899;51.174;4.456;2022-08-18T00:40:20;111.57;;;61.25;;
25917;SDS011;13899;51.174;4.456;2022-08-18T00:42:49;126.60;;;65.38;;
25917;SDS011;13899;51.174;4.456;2022-08-18T00:45:19;134.77;;;67.55;;
25917;SDS011;13899;51.174;4.456;2022-08-18T00:47:47;140.27;;;68.60;;
25917;SDS011;13899;51.174;4.456;2022-08-18T00:50:15;128.93;;;62.70;;
25917;SDS011;13899;51.174;4.456;2022-08-18T00:52:46;133.10;;;65.88;;
25917;SDS011;13899;51.174;4.456;2022-08-18T00:55:17;95.53;;;54.95;;
25917;SDS011;13899;51.174;4.456;2022-08-18T00:57:45;117.45;;;59.00;;
25917;SDS011;13899;51.174;4.456;2022-08-18T01:00:13;106.53;;;58.58;;
25917;SDS011;13899;51.174;4.456;2022-08-18T01:02:47;113.60;;;58.63;;
25917;SDS011;13899;51.174;4.456;2022-08-18T01:05:20;125.32;;;61.00;;
25917;SDS011;13899;51.174;4.456;2022-08-18T01:07:59;96.90;;;52.35;;
25917;SDS011;13899;51.174;4.456;2022-08-18T01:10:25;122.60;;;62.37;;
25917;SDS011;13899;51.174;4.456;2022-08-18T01:12:53;125.87;;;64.53;;
25917;SDS011;13899;51.174;4.456;2022-08-18T01:15:21;133.15;;;65.25;;
25917;SDS011;13899;51.174;4.456;2022-08-18T01:17:48;132.82;;;64.43;;
25917;SDS011;13899;51.174;4.456;2022-08-18T01:20:44;129.13;;;63.38;;
25917;SDS011;13899;51.174;4.456;2022-08-18T01:23:33;134.80;;;65.93;;
25917;SDS011;13899;51.174;4.456;2022-08-18T01:26:00;131.70;;;63.00;;
25917;SDS011;13899;51.174;4.456;2022-08-18T01:28:49;103.38;;;57.28;;
25917;SDS011;13899;51.174;4.456;2022-08-18T01:31:33;107.30;;;54.40;;
25917;SDS011;13899;51.174;4.456;2022-08-18T01:34:08;119.53;;;62.13;;
25917;SDS011;13899;51.174;4.456;2022-08-18T01:36:38;135.20;;;64.53;;
25917;SDS011;13899;51.174;4.456;2022-08-18T01:39:07;135.00;;;64.50;;
25917;SDS011;13899;51.174;4.456;2022-08-18T01:41:36;126.55;;;62.40;;
25917;SDS011;13899;51.174;4.456;2022-08-18T01:44:03;131.55;;;63.88;;
25917;SDS011;13899;51.174;4.456;2022-08-18T01:46:30;126.00;;;62.10;;
25917;SDS011;13899;51.174;4.456;2022-08-18T01:48:58;108.68;;;55.88;;
25917;SDS011;13899;51.174;4.456;2022-08-18T01:51:25;87.25;;;50.28;;
25917;SDS011;13899;51.174;4.456;2022-08-18T01:53:55;78.07;;;50.28;;
25917;SDS011;13899;51.174;4.456;2022-08-18T01:58:47;79.93;;;47.53;;
25917;SDS011;13899;51.174;4.456;2022-08-18T02:01:13;91.37;;;52.57;;
25917;SDS011;13899;51.174;4.456;2022-08-18T02:03:40;105.10;;;53.58;;
25917;SDS011;13899;51.174;4.456;2022-08-18T02:06:09;80.65;;;51.60;;
25917;SDS011;13899;51.174;4.456;2022-08-18T02:08:37;88.40;;;50.97;;
25917;SDS011;13899;51.174;4.456;2022-08-18T02:11:04;91.53;;;52.50;;
25917;SDS011;13899;51.174;4.456;2022-08-18T02:13:31;93.13;;;51.55;;
25917;SDS011;13899;51.174;4.456;2022-08-18T02:15:58;105.68;;;53.97;;
25917;SDS011;13899;51.174;4.456;2022-08-18T02:18:26;98.15;;;53.88;;
25917;SDS011;13899;51.174;4.456;2022-08-18T02:20:54;107.53;;;56.50;;
25917;SDS011;13899;51.174;4.456;2022-08-18T02:23:21;85.63;;;49.35;;
25917;SDS011;13899;51.174;4.456;2022-08-18T02:25:47;72.75;;;44.63;;
25917;SDS011;13899;51.174;4.456;2022-08-18T02:28:14;96.00;;;52.60;;
25917;SDS011;13899;51.174;4.456;2022-08-18T02:30:39;73.43;;;47.80;;
25917;SDS011;13899;51.174;4.456;2022-08-18T02:33:06;73.80;;;46.10;;
25917;SDS011;13899;51.174;4.456;2022-08-18T02:35:34;65.47;;;44.05;;
25917;SDS011;13899;51.174;4.456;2022-08-18T02:38:00;86.55;;;51.25;;
25917;SDS011;13899;51.174;4.456;2022-08-18T02:40:28;80.60;;;49.25;;
25917;SDS011;13899;51.174;4.456;2022-08-18T02:42:54;71.20;;;45.67;;
25917;SDS011;13899;51.174;4.456;2022-08-18T02:45:20;72.57;;;45.05;;
25917;SDS011;13899;51.174;4.456;2022-08-18T02:47:53;85.60;;;49.15;;
25917;SDS011;13899;51.174;4.456;2022-08-18T02:50:20;94.95;;;53.58;;
25917;SDS011;13899;51.174;4.456;2022-08-18T02:52:46;91.50;;;51.40;;
25917;SDS011;13899;51.174;4.456;2022-08-18T02:55:12;72.22;;;46.25;;
25917;SDS011;13899;51.174;4.456;2022-08-18T02:57:42;82.32;;;48.63;;
25917;SDS011;13899;51.174;4.456;2022-08-18T03:00:13;93.28;;;50.55;;
25917;SDS011;13899;51.174;4.456;2022-08-18T03:02:44;96.72;;;53.30;;
25917;SDS011;13899;51.174;4.456;2022-08-18T03:05:15;91.05;;;52.38;;
25917;SDS011;13899;51.174;4.456;2022-08-18T03:07:41;86.38;;;50.92;;
25917;SDS011;13899;51.174;4.456;2022-08-18T03:10:07;88.57;;;50.57;;
25917;SDS011;13899;51.174;4.456;2022-08-18T03:12:34;91.68;;;51.15;;
25917;SDS011;13899;51.174;4.456;2022-08-18T03:15:00;83.82;;;51.08;;
25917;SDS011;13899;51.174;4.456;2022-08-18T03:17:26;72.57;;;49.93;;
25917;SDS011;13899;51.174;4.456;2022-08-18T03:19:52;73.30;;;47.53;;
25917;SDS011;13899;51.174;4.456;2022-08-18T03:22:18;80.70;;;50.08;;
25917;SDS011;13899;51.174;4.456;2022-08-18T03:24:44;76.10;;;50.50;;
25917;SDS011;13899;51.174;4.456;2022-08-18T03:27:09;89.73;;;56.80;;
25917;SDS011;13899;51.174;4.456;2022-08-18T03:29:36;83.13;;;54.97;;
25917;SDS011;13899;51.174;4.456;2022-08-18T03:32:02;87.67;;;56.10;;
25917;SDS011;13899;51.174;4.456;2022-08-18T03:34:29;95.05;;;61.47;;
25917;SDS011;13899;51.174;4.456;2022-08-18T03:36:56;92.35;;;58.63;;
25917;SDS011;13899;51.174;4.456;2022-08-18T03:39:22;106.10;;;63.80;;
25917;SDS011;13899;51.174;4.456;2022-08-18T03:41:49;106.53;;;66.53;;
25917;SDS011;13899;51.174;4.456;2022-08-18T03:44:18;120.10;;;70.32;;
25917;SDS011;13899;51.174;4.456;2022-08-18T03:46:44;127.57;;;72.07;;
25917;SDS011;13899;51.174;4.456;2022-08-18T03:49:11;123.65;;;68.07;;
25917;SDS011;13899;51.174;4.456;2022-08-18T03:51:39;135.45;;;74.53;;
25917;SDS011;13899;51.174;4.456;2022-08-18T03:54:13;136.52;;;74.40;;
25917;SDS011;13899;51.174;4.456;2022-08-18T03:56:40;113.80;;;69.57;;
25917;SDS011;13899;51.174;4.456;2022-08-18T03:59:09;129.30;;;74.20;;
25917;SDS011;13899;51.174;4.456;2022-08-18T04:01:37;131.05;;;72.78;;
25917;SDS011;13899;51.174;4.456;2022-08-18T04:04:06;133.52;;;74.68;;
25917;SDS011;13899;51.174;4.456;2022-08-18T04:06:35;117.18;;;68.43;;
25917;SDS011;13899;51.174;4.456;2022-08-18T04:09:05;110.97;;;68.95;;
25917;SDS011;13899;51.174;4.456;2022-08-18T04:11:34;99.68;;;63.97;;
25917;SDS011;13899;51.174;4.456;2022-08-18T04:14:01;104.78;;;66.10;;
25917;SDS011;13899;51.174;4.456;2022-08-18T04:16:27;120.83;;;71.80;;
25917;SDS011;13899;51.174;4.456;2022-08-18T04:18:56;128.98;;;77.45;;
25917;SDS011;13899;51.174;4.456;2022-08-18T04:21:25;128.45;;;77.95;;
25917;SDS011;13899;51.174;4.456;2022-08-18T04:23:51;131.20;;;76.50;;
25917;SDS011;13899;51.174;4.456;2022-08-18T04:26:17;156.43;;;82.57;;
25917;SDS011;13899;51.174;4.456;2022-08-18T04:31:11;134.70;;;77.83;;
25917;SDS011;13899;51.174;4.456;2022-08-18T04:33:39;139.30;;;80.03;;
25917;SDS011;13899;51.174;4.456;2022-08-18T04:36:12;113.22;;;74.45;;
25917;SDS011;13899;51.174;4.456;2022-08-18T04:38:40;98.35;;;66.05;;
25917;SDS011;13899;51.174;4.456;2022-08-18T04:41:06;94.82;;;66.28;;
25917;SDS011;13899;51.174;4.456;2022-08-18T04:43:37;90.20;;;61.03;;
25917;SDS011;13899;51.174;4.456;2022-08-18T04:46:12;97.60;;;64.38;;
25917;SDS011;13899;51.174;4.456;2022-08-18T04:49:06;108.13;;;69.10;;
25917;SDS011;13899;51.174;4.456;2022-08-18T04:51:34;101.13;;;66.35;;
25917;SDS011;13899;51.174;4.456;2022-08-18T04:54:03;90.35;;;61.85;;
25917;SDS011;13899;51.174;4.456;2022-08-18T04:56:31;87.83;;;61.77;;
25917;SDS011;13899;51.174;4.456;2022-08-18T04:59:00;90.45;;;61.17;;
25917;SDS011;13899;51.174;4.456;2022-08-18T05:01:29;92.10;;;61.40;;
25917;SDS011;13899;51.174;4.456;2022-08-18T05:03:59;91.15;;;61.00;;
25917;SDS011;13899;51.174;4.456;2022-08-18T05:06:26;104.63;;;66.70;;
25917;SDS011;13899;51.174;4.456;2022-08-18T05:08:53;108.88;;;66.18;;
25917;SDS011;13899;51.174;4.456;2022-08-18T05:11:24;116.25;;;69.78;;
25917;SDS011;13899;51.174;4.456;2022-08-18T05:16:25;115.47;;;67.18;;
25917;SDS011;13899;51.174;4.456;2022-08-18T05:18:51;109.45;;;63.83;;
25917;SDS011;13899;51.174;4.456;2022-08-18T05:21:18;110.07;;;63.73;;
25917;SDS011;13899;51.174;4.456;2022-08-18T05:23:48;111.63;;;65.20;;
25917;SDS011;13899;51.174;4.456;2022-08-18T05:26:15;104.30;;;61.47;;
25917;SDS011;13899;51.174;4.456;2022-08-18T05:28:43;118.25;;;66.65;;
25917;SDS011;13899;51.174;4.456;2022-08-18T05:31:12;122.05;;;67.70;;
25917;SDS011;13899;51.174;4.456;2022-08-18T05:33:42;122.95;;;67.85;;
25917;SDS011;13899;51.174;4.456;2022-08-18T05:36:20;114.07;;;62.78;;
25917;SDS011;13899;51.174;4.456;2022-08-18T05:39:44;83.35;;;54.53;;
25917;SDS011;13899;51.174;4.456;2022-08-18T05:42:05;95.47;;;60.47;;
25917;SDS011;13899;51.174;4.456;2022-08-18T05:44:47;97.80;;;59.38;;
25917;SDS011;13899;51.174;4.456;2022-08-18T05:49:47;98.97;;;58.05;;
25917;SDS011;13899;51.174;4.456;2022-08-18T05:52:16;99.03;;;59.53;;
25917;SDS011;13899;51.174;4.456;2022-08-18T05:55:13;91.85;;;56.13;;
25917;SDS011;13899;51.174;4.456;2022-08-18T05:58:02;95.28;;;56.55;;
25917;SDS011;13899;51.174;4.456;2022-08-18T06:00:36;81.40;;;50.05;;
25917;SDS011;13899;51.174;4.456;2022-08-18T06:03:10;99.90;;;58.30;;
25917;SDS011;13899;51.174;4.456;2022-08-18T06:05:46;95.85;;;59.80;;
25917;SDS011;13899;51.174;4.456;2022-08-18T06:08:17;83.75;;;55.55;;
25917;SDS011;13899;51.174;4.456;2022-08-18T06:10:48;79.68;;;53.45;;
25917;SDS011;13899;51.174;4.456;2022-08-18T06:13:15;82.63;;;56.08;;
25917;SDS011;13899;51.174;4.456;2022-08-18T06:31:13;88.50;;;56.93;;
25917;SDS011;13899;51.174;4.456;2022-08-18T06:39:10;70.85;;;50.90;;
25917;SDS011;13899;51.174;4.456;2022-08-18T06:41:45;68.60;;;48.13;;
25917;SDS011;13899;51.174;4.456;2022-08-18T06:47:08;68.05;;;48.13;;
25917;SDS011;13899;51.174;4.456;2022-08-18T06:49:43;63.85;;;48.63;;
25917;SDS011;13899;51.174;4.456;2022-08-18T06:52:19;72.82;;;50.47;;
25917;SDS011;13899;51.174;4.456;2022-08-18T06:54:46;67.80;;;49.22;;
25917;SDS011;13899;51.174;4.456;2022-08-18T07:02:47;60.00;;;44.22;;
25917;SDS011;13899;51.174;4.456;2022-08-18T07:07:55;46.38;;;40.13;;
25917;SDS011;13899;51.174;4.456;2022-08-18T07:10:39;46.55;;;39.67;;
25917;SDS011;13899;51.174;4.456;2022-08-18T07:15:43;42.60;;;37.00;;
25917;SDS011;13899;51.174;4.456;2022-08-18T07:18:09;36.97;;;33.03;;
25917;SDS011;13899;51.174;4.456;2022-08-18T07:20:44;36.90;;;32.95;;
25917;SDS011;13899;51.174;4.456;2022-08-18T07:26:00;30.67;;;27.58;;
25917;SDS011;13899;51.174;4.456;2022-08-18T07:28:49;32.67;;;29.15;;
25917;SDS011;13899;51.174;4.456;2022-08-18T07:34:06;23.75;;;21.38;;
25917;SDS011;13899;51.174;4.456;2022-08-18T07:36:37;21.00;;;19.42;;
25917;SDS011;13899;51.174;4.456;2022-08-18T07:39:19;22.83;;;20.45;;
25917;SDS011;13899;51.174;4.456;2022-08-18T07:41:53;20.98;;;18.98;;
25917;SDS011;13899;51.174;4.456;2022-08-18T07:44:34;18.00;;;16.40;;
25917;SDS011;13899;51.174;4.456;2022-08-18T07:47:17;22.35;;;20.15;;
25917;SDS011;13899;51.174;4.456;2022-08-18T07:49:48;18.27;;;16.77;;
25917;SDS011;13899;51.174;4.456;2022-08-18T07:52:17;21.07;;;19.53;;
25917;SDS011;13899;51.174;4.456;2022-08-18T07:55:46;21.15;;;19.45;;
25917;SDS011;13899;51.174;4.456;2022-08-18T07:57:55;18.30;;;16.80;;
25917;SDS011;13899;51.174;4.456;2022-08-18T08:00:33;13.57;;;12.57;;
25917;SDS011;13899;51.174;4.456;2022-08-18T08:08:36;13.75;;;12.55;;
25917;SDS011;13899;51.174;4.456;2022-08-18T08:11:12;12.18;;;11.20;;
25917;SDS011;13899;51.174;4.456;2022-08-18T08:17:04;9.95;;;9.02;;
25917;SDS011;13899;51.174;4.456;2022-08-18T08:22:23;12.55;;;11.65;;
25917;SDS011;13899;51.174;4.456;2022-08-18T08:30:17;11.52;;;10.45;;
25917;SDS011;13899;51.174;4.456;2022-08-18T08:35:22;11.30;;;10.43;;
25917;SDS011;13899;51.174;4.456;2022-08-18T08:38:09;11.93;;;8.68;;
25917;SDS011;13899;51.174;4.456;2022-08-18T08:40:52;10.13;;;9.27;;
25917;SDS011;13899;51.174;4.456;2022-08-18T08:43:31;9.43;;;8.57;;
25917;SDS011;13899;51.174;4.456;2022-08-18T08:48:45;13.95;;;12.85;;
25917;SDS011;13899;51.174;4.456;2022-08-18T08:57:08;15.15;;;13.95;;
25917;SDS011;13899;51.174;4.456;2022-08-18T08:59:37;15.77;;;14.57;;
25917;SDS011;13899;51.174;4.456;2022-08-18T09:02:14;17.58;;;16.33;;
25917;SDS011;13899;51.174;4.456;2022-08-18T09:16:18;15.68;;;14.20;;
25917;SDS011;13899;51.174;4.456;2022-08-18T09:21:45;18.88;;;17.45;;
25917;SDS011;13899;51.174;4.456;2022-08-18T09:29:54;13.10;;;12.00;;
25917;SDS011;13899;51.174;4.456;2022-08-18T09:40:47;9.98;;;9.18;;
25917;SDS011;13899;51.174;4.456;2022-08-18T09:43:37;11.50;;;10.68;;
25917;SDS011;13899;51.174;4.456;2022-08-18T09:49:49;16.85;;;15.52;;
25917;SDS011;13899;51.174;4.456;2022-08-18T09:54:58;17.08;;;15.93;;
25917;SDS011;13899;51.174;4.456;2022-08-18T09:57:31;21.10;;;19.30;;
25917;SDS011;13899;51.174;4.456;2022-08-18T10:21:10;25.42;;;23.20;;
25917;SDS011;13899;51.174;4.456;2022-08-18T10:23:45;23.33;;;21.23;;
25917;SDS011;13899;51.174;4.456;2022-08-18T10:32:34;22.45;;;20.75;;
25917;SDS011;13899;51.174;4.456;2022-08-18T10:35:03;21.90;;;20.02;;
25917;SDS011;13899;51.174;4.456;2022-08-18T10:37:50;24.88;;;22.88;;
25917;SDS011;13899;51.174;4.456;2022-08-18T10:40:18;23.55;;;21.85;;
25917;SDS011;13899;51.174;4.456;2022-08-18T10:45:33;28.52;;;26.58;;
25917;SDS011;13899;51.174;4.456;2022-08-18T10:48:26;23.00;;;21.15;;
25917;SDS011;13899;51.174;4.456;2022-08-18T10:51:02;21.35;;;19.48;;
25917;SDS011;13899;51.174;4.456;2022-08-18T10:57:07;20.33;;;18.73;;
25917;SDS011;13899;51.174;4.456;2022-08-18T10:59:49;20.40;;;19.08;;
25917;SDS011;13899;51.174;4.456;2022-08-18T11:05:15;15.98;;;14.90;;
25917;SDS011;13899;51.174;4.456;2022-08-18T11:07:48;16.48;;;15.20;;
25917;SDS011;13899;51.174;4.456;2022-08-18T11:10:44;14.95;;;13.85;;
25917;SDS011;13899;51.174;4.456;2022-08-18T11:13:48;13.85;;;12.95;;
25917;SDS011;13899;51.174;4.456;2022-08-18T11:22:52;8.82;;;8.13;;
25917;SDS011;13899;51.174;4.456;2022-08-18T11:27:57;8.07;;;7.47;;
25917;SDS011;13899;51.174;4.456;2022-08-18T11:31:20;8.05;;;7.35;;
25917;SDS011;13899;51.174;4.456;2022-08-18T11:33:47;15.50;;;14.60;;
25917;SDS011;13899;51.174;4.456;2022-08-18T11:36:27;12.77;;;11.95;;
25917;SDS011;13899;51.174;4.456;2022-08-18T11:39:07;16.05;;;14.77;;
25917;SDS011;13899;51.174;4.456;2022-08-18T11:41:39;24.37;;;23.00;;
25917;SDS011;13899;51.174;4.456;2022-08-18T11:44:23;16.05;;;15.15;;
25917;SDS011;13899;51.174;4.456;2022-08-18T11:47:17;15.18;;;14.30;;
25917;SDS011;13899;51.174;4.456;2022-08-18T11:50:28;6.20;;;5.70;;
25917;SDS011;13899;51.174;4.456;2022-08-18T11:53:11;7.70;;;7.10;;
25917;SDS011;13899;51.174;4.456;2022-08-18T11:55:41;11.55;;;10.90;;
25917;SDS011;13899;51.174;4.456;2022-08-18T11:58:07;12.57;;;11.73;;
25917;SDS011;13899;51.174;4.456;2022-08-18T12:03:36;11.23;;;10.32;;
25917;SDS011;13899;51.174;4.456;2022-08-18T12:06:24;23.58;;;22.52;;
25917;SDS011;13899;51.174;4.456;2022-08-18T12:09:05;24.17;;;23.08;;
25917;SDS011;13899;51.174;4.456;2022-08-18T12:12:32;5.68;;;5.13;;
25917;SDS011;13899;51.174;4.456;2022-08-18T12:16:10;6.13;;;5.68;;
25917;SDS011;13899;51.174;4.456;2022-08-18T12:18:39;11.43;;;10.77;;
25917;SDS011;13899;51.174;4.456;2022-08-18T12:21:05;5.68;;;5.22;;
25917;SDS011;13899;51.174;4.456;2022-08-18T12:23:32;6.50;;;5.90;;
25917;SDS011;13899;51.174;4.456;2022-08-18T12:26:00;15.10;;;14.30;;
25917;SDS011;13899;51.174;4.456;2022-08-18T12:28:29;15.88;;;15.18;;
25917;SDS011;13899;51.174;4.456;2022-08-18T12:31:35;9.82;;;9.18;;
25917;SDS011;13899;51.174;4.456;2022-08-18T12:35:05;5.88;;;5.38;;
25917;SDS011;13899;51.174;4.456;2022-08-18T12:37:33;6.07;;;5.68;;
25917;SDS011;13899;51.174;4.456;2022-08-18T12:39:59;6.33;;;5.53;;
25917;SDS011;13899;51.174;4.456;2022-08-18T12:42:26;5.95;;;5.55;;
25917;SDS011;13899;51.174;4.456;2022-08-18T12:44:52;5.97;;;5.50;;
25917;SDS011;13899;51.174;4.456;2022-08-18T12:47:19;7.78;;;7.28;;
25917;SDS011;13899;51.174;4.456;2022-08-18T12:50:03;9.43;;;8.93;;
25917;SDS011;13899;51.174;4.456;2022-08-18T12:56:23;16.17;;;15.38;;
25917;SDS011;13899;51.174;4.456;2022-08-18T12:58:57;11.48;;;10.80;;
25917;SDS011;13899;51.174;4.456;2022-08-18T13:01:36;6.50;;;5.90;;
25917;SDS011;13899;51.174;4.456;2022-08-18T13:04:08;6.22;;;5.75;;
25917;SDS011;13899;51.174;4.456;2022-08-18T13:09:56;12.50;;;11.70;;
25917;SDS011;13899;51.174;4.456;2022-08-18T13:12:25;4.00;;;3.72;;
25917;SDS011;13899;51.174;4.456;2022-08-18T13:17:42;4.90;;;4.60;;
25917;SDS011;13899;51.174;4.456;2022-08-18T13:23:52;3.92;;;3.63;;
25917;SDS011;13899;51.174;4.456;2022-08-18T13:26:32;4.82;;;4.53;;
25917;SDS011;13899;51.174;4.456;2022-08-18T13:29:03;4.95;;;4.63;;
25917;SDS011;13899;51.174;4.456;2022-08-18T13:31:51;5.60;;;5.25;;
25917;SDS011;13899;51.174;4.456;2022-08-18T13:37:54;5.43;;;4.93;;
25917;SDS011;13899;51.174;4.456;2022-08-18T13:40:20;5.65;;;4.65;;
25917;SDS011;13899;51.174;4.456;2022-08-18T13:42:47;4.85;;;3.88;;
25917;SDS011;13899;51.174;4.456;2022-08-18T13:45:15;4.80;;;4.47;;
25917;SDS011;13899;51.174;4.456;2022-08-18T13:47:45;4.45;;;4.05;;
25917;SDS011;13899;51.174;4.456;2022-08-18T13:50:11;4.80;;;4.40;;
25917;SDS011;13899;51.174;4.456;2022-08-18T13:52:38;4.32;;;4.03;;
25917;SDS011;13899;51.174;4.456;2022-08-18T13:55:12;4.10;;;3.80;;
25917;SDS011;13899;51.174;4.456;2022-08-18T13:57:42;4.20;;;3.90;;
25917;SDS011;13899;51.174;4.456;2022-08-18T14:00:12;5.10;;;4.70;;
25917;SDS011;13899;51.174;4.456;2022-08-18T14:02:40;4.00;;;3.70;;
25917;SDS011;13899;51.174;4.456;2022-08-18T14:05:06;3.85;;;3.55;;
25917;SDS011;13899;51.174;4.456;2022-08-18T14:07:33;4.13;;;3.70;;
25917;SDS011;13899;51.174;4.456;2022-08-18T14:10:00;6.38;;;4.10;;
25917;SDS011;13899;51.174;4.456;2022-08-18T14:12:27;3.75;;;3.47;;
25917;SDS011;13899;51.174;4.456;2022-08-18T14:14:54;4.03;;;3.72;;
25917;SDS011;13899;51.174;4.456;2022-08-18T14:17:21;3.72;;;3.42;;
25917;SDS011;13899;51.174;4.456;2022-08-18T14:19:48;4.57;;;3.50;;
25917;SDS011;13899;51.174;4.456;2022-08-18T14:22:35;6.43;;;5.82;;
25917;SDS011;13899;51.174;4.456;2022-08-18T14:25:19;4.18;;;3.80;;
25917;SDS011;13899;51.174;4.456;2022-08-18T14:28:03;3.38;;;3.10;;
25917;SDS011;13899;51.174;4.456;2022-08-18T14:30:29;4.68;;;3.55;;
25917;SDS011;13899;51.174;4.456;2022-08-18T14:32:56;4.10;;;3.40;;
25917;SDS011;13899;51.174;4.456;2022-08-18T14:35:23;4.35;;;3.95;;
25917;SDS011;13899;51.174;4.456;2022-08-18T14:37:48;3.53;;;3.22;;
25917;SDS011;13899;51.174;4.456;2022-08-18T14:40:14;4.20;;;3.00;;
25917;SDS011;13899;51.174;4.456;2022-08-18T14:45:13;3.80;;;3.50;;
25917;SDS011;13899;51.174;4.456;2022-08-18T14:47:39;4.55;;;4.15;;
25917;SDS011;13899;51.174;4.456;2022-08-18T14:50:08;4.38;;;3.90;;
25917;SDS011;13899;51.174;4.456;2022-08-18T14:52:37;4.30;;;3.55;;
25917;SDS011;13899;51.174;4.456;2022-08-18T14:55:05;3.40;;;3.10;;
25917;SDS011;13899;51.174;4.456;2022-08-18T14:57:32;3.88;;;3.55;;
25917;SDS011;13899;51.174;4.456;2022-08-18T15:00:00;5.20;;;4.22;;
25917;SDS011;13899;51.174;4.456;2022-08-18T15:02:59;5.22;;;4.50;;
25917;SDS011;13899;51.174;4.456;2022-08-18T15:05:32;4.70;;;4.30;;
25917;SDS011;13899;51.174;4.456;2022-08-18T15:08:08;4.05;;;3.75;;
25917;SDS011;13899;51.174;4.456;2022-08-18T15:13:00;5.95;;;3.83;;
25917;SDS011;13899;51.174;4.456;2022-08-18T15:15:26;4.00;;;3.57;;
25917;SDS011;13899;51.174;4.456;2022-08-18T15:17:53;3.83;;;3.30;;
25917;SDS011;13899;51.174;4.456;2022-08-18T15:20:20;4.35;;;3.97;;
25917;SDS011;13899;51.174;4.456;2022-08-18T15:22:48;3.60;;;3.30;;
25917;SDS011;13899;51.174;4.456;2022-08-18T15:25:33;3.45;;;3.15;;
25917;SDS011;13899;51.174;4.456;2022-08-18T15:28:19;4.82;;;4.43;;
25917;SDS011;13899;51.174;4.456;2022-08-18T15:30:47;5.07;;;4.60;;
25917;SDS011;13899;51.174;4.456;2022-08-18T15:33:15;4.32;;;3.55;;
25917;SDS011;13899;51.174;4.456;2022-08-18T15:35:43;3.65;;;3.35;;
25917;SDS011;13899;51.174;4.456;2022-08-18T15:38:18;5.13;;;3.90;;
25917;SDS011;13899;51.174;4.456;2022-08-18T15:40:50;4.70;;;4.30;;
25917;SDS011;13899;51.174;4.456;2022-08-18T15:43:27;4.25;;;3.88;;
25917;SDS011;13899;51.174;4.456;2022-08-18T15:46:02;4.32;;;4.03;;
25917;SDS011;13899;51.174;4.456;2022-08-18T15:48:27;4.60;;;4.20;;
25917;SDS011;13899;51.174;4.456;2022-08-18T15:51:19;4.75;;;4.32;;
25917;SDS011;13899;51.174;4.456;2022-08-18T15:53:45;4.07;;;3.80;;
25917;SDS011;13899;51.174;4.456;2022-08-18T15:56:15;4.77;;;3.40;;
25917;SDS011;13899;51.174;4.456;2022-08-18T15:58:44;3.92;;;3.53;;
25917;SDS011;13899;51.174;4.456;2022-08-18T16:01:11;4.25;;;3.45;;
25917;SDS011;13899;51.174;4.456;2022-08-18T16:03:39;4.60;;;4.20;;
25917;SDS011;13899;51.174;4.456;2022-08-18T16:06:06;4.50;;;4.10;;
25917;SDS011;13899;51.174;4.456;2022-08-18T16:09:18;4.03;;;3.70;;
25917;SDS011;13899;51.174;4.456;2022-08-18T16:12:44;4.78;;;4.32;;
25917;SDS011;13899;51.174;4.456;2022-08-18T16:28:26;5.00;;;4.30;;
25917;SDS011;13899;51.174;4.456;2022-08-18T16:31:11;5.05;;;4.65;;
25917;SDS011;13899;51.174;4.456;2022-08-18T16:34:03;5.72;;;5.22;;
25917;SDS011;13899;51.174;4.456;2022-08-18T16:40:13;4.53;;;4.22;;
25917;SDS011;13899;51.174;4.456;2022-08-18T16:42:40;4.18;;;3.70;;
25917;SDS011;13899;51.174;4.456;2022-08-18T16:45:06;3.72;;;3.53;;
25917;SDS011;13899;51.174;4.456;2022-08-18T16:47:32;4.18;;;3.75;;
25917;SDS011;13899;51.174;4.456;2022-08-18T16:50:04;4.25;;;3.72;;
25917;SDS011;13899;51.174;4.456;2022-08-18T16:52:35;4.70;;;4.10;;
25917;SDS011;13899;51.174;4.456;2022-08-18T16:55:01;4.25;;;3.95;;
25917;SDS011;13899;51.174;4.456;2022-08-18T16:57:29;4.38;;;4.07;;
25917;SDS011;13899;51.174;4.456;2022-08-18T17:00:13;4.50;;;4.10;;
25917;SDS011;13899;51.174;4.456;2022-08-18T17:03:04;4.50;;;4.10;;
25917;SDS011;13899;51.174;4.456;2022-08-18T17:06:04;4.82;;;4.43;;
25917;SDS011;13899;51.174;4.456;2022-08-18T17:09:11;5.22;;;4.82;;
25917;SDS011;13899;51.174;4.456;2022-08-18T17:12:12;5.28;;;4.88;;
25917;SDS011;13899;51.174;4.456;2022-08-18T17:15:18;4.10;;;3.72;;
25917;SDS011;13899;51.174;4.456;2022-08-18T17:17:44;4.63;;;4.22;;
25917;SDS011;13899;51.174;4.456;2022-08-18T17:20:41;3.97;;;3.67;;
25917;SDS011;13899;51.174;4.456;2022-08-18T17:23:39;5.65;;;4.40;;
25917;SDS011;13899;51.174;4.456;2022-08-18T17:26:07;4.32;;;4.03;;
25917;SDS011;13899;51.174;4.456;2022-08-18T17:28:50;4.53;;;4.15;;
25917;SDS011;13899;51.174;4.456;2022-08-18T17:31:52;5.45;;;4.43;;
25917;SDS011;13899;51.174;4.456;2022-08-18T17:35:29;4.60;;;4.20;;
25917;SDS011;13899;51.174;4.456;2022-08-18T17:38:56;4.82;;;4.43;;
25917;SDS011;13899;51.174;4.456;2022-08-18T17:42:02;5.13;;;4.53;;
25917;SDS011;13899;51.174;4.456;2022-08-18T17:47:57;5.00;;;4.55;;
25917;SDS011;13899;51.174;4.456;2022-08-18T17:51:36;5.22;;;4.80;;
25917;SDS011;13899;51.174;4.456;2022-08-18T17:54:27;5.22;;;4.80;;
25917;SDS011;13899;51.174;4.456;2022-08-18T17:57:27;5.00;;;4.57;;
25917;SDS011;13899;51.174;4.456;2022-08-18T18:00:21;5.35;;;4.90;;
25917;SDS011;13899;51.174;4.456;2022-08-18T18:03:30;6.75;;;4.70;;
25917;SDS011;13899;51.174;4.456;2022-08-18T18:06:27;5.63;;;5.03;;
25917;SDS011;13899;51.174;4.456;2022-08-18T18:11:44;5.90;;;5.07;;
25917;SDS011;13899;51.174;4.456;2022-08-18T18:17:01;5.25;;;4.40;;
25917;SDS011;13899;51.174;4.456;2022-08-18T18:19:33;4.43;;;4.05;;
25917;SDS011;13899;51.174;4.456;2022-08-18T18:22:09;5.10;;;4.35;;
25917;SDS011;13899;51.174;4.456;2022-08-18T18:24:46;4.10;;;3.80;;
25917;SDS011;13899;51.174;4.456;2022-08-18T18:30:17;4.15;;;3.78;;
25917;SDS011;13899;51.174;4.456;2022-08-18T18:43:21;4.97;;;3.40;;
25917;SDS011;13899;51.174;4.456;2022-08-18T18:46:23;4.00;;;3.60;;
25917;SDS011;13899;51.174;4.456;2022-08-18T18:49:04;3.45;;;3.15;;
25917;SDS011;13899;51.174;4.456;2022-08-18T19:02:52;4.30;;;3.90;;
25917;SDS011;13899;51.174;4.456;2022-08-18T19:08:20;4.38;;;3.80;;
25917;SDS011;13899;51.174;4.456;2022-08-18T19:10:55;4.00;;;3.70;;